Time;durP1;ratioP1;P1;durP2;ratioP2;P2;SDS_P1;SDS_P2;PMS_P1;PMS_P2;Temp;Humidity;BMP_temperature;BMP_pressure;BME280_temperature;BME280_humidity;BME280_pressure;Samples;Min_cycle;Max_cycle;Signal;HPM_P1;HPM_P2
2021/03/23 00:01:07;;;;;;;5.82;4.63;;;;;;;6.41;61.74;101326.94;5090180;28;20028;-77
2021/03/23 00:03:41;;;;;;;3.13;2.92;;;;;;;6.42;61.52;101325.88;5055142;28;20399;-77
2021/03/23 00:06:08;;;;;;;3.60;3.40;;;;;;;6.42;61.72;101315.00;5079138;28;20028;-75
2021/03/23 00:08:38;;;;;;;4.90;4.60;;;;;;;6.51;62.14;101328.34;5068102;28;20100;-77
2021/03/23 00:11:24;;;;;;;4.95;4.57;;;;;;;6.57;62.44;101324.75;5065556;28;20032;-77
2021/03/23 00:13:51;;;;;;;3.85;3.65;;;;;;;6.50;61.68;101313.09;5057552;28;20039;-75
2021/03/23 00:16:19;;;;;;;4.05;3.75;;;;;;;6.49;62.37;101316.88;5082787;28;20035;-76
2021/03/23 00:18:46;;;;;;;6.10;4.10;;;;;;;6.44;62.32;101314.81;5072966;28;20044;-79
2021/03/23 00:21:13;;;;;;;4.75;4.45;;;;;;;6.40;62.42;101319.84;5060676;28;20463;-76
2021/03/23 00:23:39;;;;;;;5.30;4.90;;;;;;;6.33;62.20;101318.22;5079494;28;20024;-77
2021/03/23 00:26:07;;;;;;;4.85;4.53;;;;;;;6.23;63.02;101307.78;5077309;28;20028;-78
2021/03/23 00:28:33;;;;;;;4.75;4.32;;;;;;;6.14;63.15;101303.66;5062941;28;20382;-77
2021/03/23 00:30:59;;;;;;;5.35;4.93;;;;;;;6.16;63.22;101312.41;5083930;28;20033;-78
2021/03/23 00:33:25;;;;;;;7.25;4.15;;;;;;;6.17;63.83;101314.09;5063599;28;20025;-77
2021/03/23 00:35:54;;;;;;;5.38;4.80;;;;;;;6.14;63.86;101319.97;5067478;28;20024;-79
2021/03/23 00:38:22;;;;;;;4.60;4.22;;;;;;;6.10;64.13;101314.97;5087696;28;20028;-78
2021/03/23 00:40:48;;;;;;;5.22;4.65;;;;;;;6.05;64.59;101316.63;5078159;28;20048;-78
2021/03/23 00:43:14;;;;;;;7.30;4.55;;;;;;;6.00;65.08;101306.44;5091929;28;20105;-77
2021/03/23 00:45:42;;;;;;;5.03;4.28;;;;;;;5.86;65.07;101293.91;5088372;28;20044;-77
2021/03/23 00:48:10;;;;;;;3.72;3.45;;;;;;;5.89;64.83;101302.44;5083842;28;20037;-77
2021/03/23 00:50:36;;;;;;;3.97;3.67;;;;;;;5.87;65.09;101303.69;5070334;28;20506;-78
2021/03/23 00:53:02;;;;;;;3.28;3.08;;;;;;;5.84;65.67;101298.69;5072543;28;20051;-80
2021/03/23 00:55:28;;;;;;;3.53;3.22;;;;;;;5.86;66.09;101310.19;5061604;28;20029;-79
2021/03/23 00:57:53;;;;;;;3.60;3.40;;;;;;;5.73;65.28;101295.59;5082960;28;20029;-77
2021/03/23 01:00:20;;;;;;;3.28;3.17;;;;;;;5.81;65.54;101309.97;5067089;28;20029;-80
2021/03/23 01:02:45;;;;;;;2.83;2.63;;;;;;;5.73;65.61;101298.31;5071288;28;20074;-78
2021/03/23 01:05:14;;;;;;;2.80;2.70;;;;;;;5.75;65.74;101298.94;5072431;28;20024;-78
2021/03/23 01:07:40;;;;;;;3.55;3.35;;;;;;;5.75;65.67;101301.66;5079924;28;20044;-77
2021/03/23 01:10:07;;;;;;;5.97;3.20;;;;;;;5.72;65.97;101293.94;5076997;28;20058;-76
2021/03/23 01:12:33;;;;;;;4.63;2.95;;;;;;;5.70;66.07;101295.19;5090078;28;20028;-78
2021/03/23 01:14:58;;;;;;;2.42;2.22;;;;;;;5.72;65.53;101291.22;5068949;28;20106;-76
2021/03/23 01:17:24;;;;;;;1.70;1.60;;;;;;;5.69;65.21;101290.81;5065810;28;20055;-75
2021/03/23 01:19:50;;;;;;;1.38;1.27;;;;;;;5.59;65.66;101280.38;5093831;28;20021;-76
2021/03/23 01:22:15;;;;;;;1.77;1.67;;;;;;;5.61;65.07;101291.88;5089282;28;20473;-75
2021/03/23 01:24:41;;;;;;;3.13;2.13;;;;;;;5.59;65.11;101291.22;5048371;28;20036;-76
2021/03/23 01:27:08;;;;;;;1.08;1.08;;;;;;;5.45;65.10;101274.16;5086022;28;20020;-74
2021/03/23 01:29:35;;;;;;;0.95;0.95;;;;;;;5.45;65.17;101273.31;5092959;28;20047;-75
2021/03/23 01:32:01;;;;;;;1.50;1.40;;;;;;;5.49;65.15;101277.28;5066266;28;20020;-74
2021/03/23 01:34:26;;;;;;;1.75;1.10;;;;;;;5.50;65.14;101270.81;5074942;28;20132;-75
2021/03/23 01:36:52;;;;;;;1.35;1.25;;;;;;;5.59;65.03;101269.53;5053336;28;20036;-74
2021/03/23 01:39:18;;;;;;;2.08;1.00;;;;;;;5.59;64.62;101264.09;5084176;28;20044;-76
2021/03/23 01:41:43;;;;;;;0.93;0.80;;;;;;;5.66;64.67;101264.91;5069554;28;20028;-76
2021/03/23 01:44:09;;;;;;;1.27;1.00;;;;;;;5.71;64.39;101257.00;5064068;28;20115;-75
2021/03/23 01:46:37;;;;;;;0.95;0.95;;;;;;;5.89;64.64;101266.34;5081824;28;20028;-73
2021/03/23 01:49:03;;;;;;;0.98;0.90;;;;;;;5.95;64.65;101254.59;5061110;28;20054;-75
2021/03/23 01:51:28;;;;;;;1.08;1.00;;;;;;;6.09;63.92;101261.69;5084766;28;20016;-74
2021/03/23 01:54:00;;;;;;;2.17;0.98;;;;;;;6.17;64.30;101257.88;5062216;28;20036;-77
2021/03/23 01:56:28;;;;;;;1.00;1.00;;;;;;;6.23;63.75;101251.56;5089644;28;20073;-74
2021/03/23 01:58:54;;;;;;;1.48;0.60;;;;;;;6.36;64.09;101258.81;5076152;28;20021;-73
2021/03/23 02:01:21;;;;;;;1.15;1.05;;;;;;;6.40;63.69;101246.47;5079805;28;20118;-74
2021/03/23 02:03:48;;;;;;;0.82;0.82;;;;;;;6.53;63.39;101255.63;5074328;28;20048;-75
2021/03/23 02:06:32;;;;;;;1.40;1.33;;;;;;;6.54;62.98;101246.38;5068172;28;20482;-75
2021/03/23 02:08:59;;;;;;;1.60;1.50;;;;;;;6.58;63.00;101256.59;5096885;28;20034;-75
2021/03/23 02:11:26;;;;;;;1.20;1.20;;;;;;;6.60;63.17;101253.66;5099179;28;20028;-76
2021/03/23 02:13:53;;;;;;;1.85;1.75;;;;;;;6.61;62.51;101250.75;5067955;28;20031;-75
2021/03/23 02:16:19;;;;;;;1.65;1.55;;;;;;;6.62;62.71;101246.97;5102033;28;20020;-75
2021/03/23 02:18:44;;;;;;;1.48;1.38;;;;;;;6.73;62.38;101259.03;5078733;28;20028;-75
2021/03/23 02:21:16;;;;;;;1.23;1.15;;;;;;;6.77;62.33;101252.06;5067890;28;20039;-75
2021/03/23 02:23:45;;;;;;;1.08;0.98;;;;;;;6.76;62.52;101253.16;5100701;28;20032;-76
2021/03/23 02:26:13;;;;;;;2.05;1.60;;;;;;;6.76;62.61;101258.59;5082611;28;20029;-78
2021/03/23 02:28:53;;;;;;;2.72;2.53;;;;;;;6.82;61.92;101254.16;5087912;28;20039;-78
2021/03/23 02:31:32;;;;;;;3.13;2.70;;;;;;;6.68;62.42;101228.94;5091366;28;20016;-76
2021/03/23 02:33:58;;;;;;;2.47;2.38;;;;;;;6.80;61.81;101253.53;5105267;28;20389;-77
2021/03/23 02:36:28;;;;;;;3.88;3.60;;;;;;;6.63;62.38;101232.31;5110589;28;20024;-75
2021/03/23 02:38:53;;;;;;;2.72;2.63;;;;;;;6.72;61.87;101245.66;5103505;28;20032;-75
2021/03/23 02:41:19;;;;;;;3.13;2.97;;;;;;;6.70;61.95;101242.31;5086579;28;20036;-76
2021/03/23 02:43:46;;;;;;;2.95;2.75;;;;;;;6.68;62.27;101239.81;5089411;28;20024;-74
2021/03/23 02:46:12;;;;;;;4.07;3.88;;;;;;;6.67;62.24;101250.91;5101056;28;20024;-77
2021/03/23 02:48:37;;;;;;;3.50;3.25;;;;;;;6.62;62.31;101241.53;5113420;28;20015;-77
2021/03/23 02:51:07;;;;;;;2.30;2.20;;;;;;;6.66;62.76;101236.50;5087125;28;20031;-75
2021/03/23 02:53:32;;;;;;;6.47;2.42;;;;;;;6.63;61.96;101226.06;5095246;28;20020;-74
2021/03/23 02:55:58;;;;;;;2.13;2.03;;;;;;;6.74;62.67;101238.09;5069084;28;20032;-75
2021/03/23 02:58:24;;;;;;;3.30;3.10;;;;;;;6.73;61.98;101237.28;5080061;28;20261;-74
2021/03/23 03:00:49;;;;;;;2.78;2.67;;;;;;;6.66;62.41;101230.22;5100719;28;20028;-74
2021/03/23 03:03:15;;;;;;;2.33;2.13;;;;;;;6.64;62.31;101219.56;5076344;28;20048;-74
2021/03/23 03:05:40;;;;;;;1.80;1.70;;;;;;;6.76;62.01;101236.84;5089424;28;20040;-74
2021/03/23 03:08:06;;;;;;;2.25;1.17;;;;;;;6.79;61.92;101233.69;5093474;28;20076;-72
2021/03/23 03:10:33;;;;;;;2.47;1.75;;;;;;;6.81;61.82;101228.84;5089540;28;20496;-72
2021/03/23 03:13:01;;;;;;;1.33;1.25;;;;;;;6.80;61.75;101221.75;5072760;28;20020;-74
2021/03/23 03:15:27;;;;;;;1.88;1.77;;;;;;;6.82;61.71;101225.06;5096846;28;20489;-75
2021/03/23 03:17:53;;;;;;;1.40;1.40;;;;;;;6.90;61.75;101236.72;5092996;28;20032;-73
2021/03/23 03:20:18;;;;;;;1.30;1.30;;;;;;;6.88;61.97;101217.06;5083801;28;21288;-75
2021/03/23 03:22:44;;;;;;;1.45;1.35;;;;;;;6.91;61.65;101222.91;5100092;28;20496;-76
2021/03/23 03:25:14;;;;;;;1.10;1.10;;;;;;;6.91;62.05;101216.66;5084937;28;20020;-73
2021/03/23 03:27:39;;;;;;;1.20;1.20;;;;;;;6.92;61.60;101218.28;5086172;28;20111;-75
2021/03/23 03:30:08;;;;;;;1.40;1.30;;;;;;;6.99;61.91;101224.50;5072112;28;20082;-73
2021/03/23 03:32:34;;;;;;;1.60;1.50;;;;;;;7.01;61.77;101219.69;5096439;28;20084;-73
2021/03/23 03:35:00;;;;;;;1.25;1.15;;;;;;;7.04;62.02;101213.81;5099378;28;20024;-73
2021/03/23 03:37:26;;;;;;;1.27;1.25;;;;;;;7.07;61.70;101209.81;5063682;28;20017;-72
2021/03/23 03:39:51;;;;;;;0.88;0.88;;;;;;;7.11;61.93;101206.44;5087897;28;20032;-74
2021/03/23 03:42:16;;;;;;;3.38;0.90;;;;;;;7.15;61.77;101210.38;5091610;28;20038;-73
2021/03/23 03:44:42;;;;;;;2.15;2.05;;;;;;;7.21;61.89;101215.94;5073247;28;20032;-72
2021/03/23 03:47:07;;;;;;;2.10;2.00;;;;;;;7.21;61.84;101219.50;5091158;28;20050;-75
2021/03/23 03:49:33;;;;;;;1.80;1.70;;;;;;;7.18;61.84;101217.22;5072611;28;20042;-73
2021/03/23 03:51:58;;;;;;;1.10;1.10;;;;;;;7.18;61.17;101213.69;5094573;28;20526;-72
2021/03/23 03:54:23;;;;;;;3.67;2.80;;;;;;;7.16;61.92;101212.00;5040074;28;20043;-73
2021/03/23 03:56:49;;;;;;;2.15;2.05;;;;;;;7.24;61.75;101215.50;5081609;28;20039;-76
2021/03/23 03:59:15;;;;;;;3.03;2.83;;;;;;;7.24;61.73;101227.22;5077985;28;20028;-74
2021/03/23 04:01:41;;;;;;;2.85;2.65;;;;;;;7.25;61.75;101217.16;5093817;28;20028;-74
2021/03/23 04:04:06;;;;;;;3.17;2.70;;;;;;;7.19;61.53;101202.56;5054857;28;20201;-73
2021/03/23 04:06:32;;;;;;;4.22;3.63;;;;;;;7.19;62.08;101212.63;5069248;28;20397;-75
2021/03/23 04:08:59;;;;;;;2.72;2.63;;;;;;;7.12;62.36;101207.25;5054949;28;20055;-73
2021/03/23 04:11:25;;;;;;;3.20;3.00;;;;;;;7.14;61.98;101211.41;5072372;28;20040;-74
2021/03/23 04:13:51;;;;;;;3.58;3.38;;;;;;;7.08;62.49;101198.72;5059010;28;20504;-75
2021/03/23 04:16:16;;;;;;;2.97;2.78;;;;;;;7.06;61.75;101211.69;5055556;28;20032;-77
2021/03/23 04:18:45;;;;;;;2.30;2.20;;;;;;;7.03;62.05;101203.97;5064231;28;20103;-75
2021/03/23 04:21:10;;;;;;;2.50;2.40;;;;;;;7.07;62.26;101201.66;5054442;28;20031;-74
2021/03/23 04:23:41;;;;;;;2.83;2.70;;;;;;;7.00;62.22;101193.56;5075004;28;20103;-74
2021/03/23 04:26:09;;;;;;;3.63;3.42;;;;;;;7.04;62.36;101204.81;5074705;28;20029;-74
2021/03/23 04:28:36;;;;;;;3.05;2.92;;;;;;;6.96;62.83;101197.75;5075638;28;20063;-75
2021/03/23 04:31:04;;;;;;;4.60;4.18;;;;;;;6.96;62.79;101208.63;5060580;28;20028;-75
2021/03/23 04:33:30;;;;;;;2.60;2.50;;;;;;;6.98;62.52;101212.81;5042594;28;20512;-76
2021/03/23 04:36:02;;;;;;;4.15;3.78;;;;;;;6.98;62.71;101209.28;5054417;28;20119;-76
2021/03/23 04:38:38;;;;;;;4.05;3.70;;;;;;;6.93;63.01;101204.47;5077997;28;20036;-75
2021/03/23 04:41:07;;;;;;;4.22;4.03;;;;;;;6.94;63.25;101221.66;5079321;28;20080;-74
2021/03/23 04:43:36;;;;;;;7.18;4.57;;;;;;;6.90;63.48;101209.53;5068056;28;20050;-74
2021/03/23 04:46:02;;;;;;;3.83;3.25;;;;;;;6.88;62.94;101211.63;5074218;28;20064;-74
2021/03/23 04:48:30;;;;;;;4.60;4.13;;;;;;;6.84;63.25;101205.81;5058364;28;20024;-75
2021/03/23 04:50:56;;;;;;;2.75;2.55;;;;;;;6.81;63.20;101204.38;5074283;28;20132;-73
2021/03/23 04:53:26;;;;;;;2.03;1.92;;;;;;;6.87;63.69;101204.56;5073197;28;20025;-73
2021/03/23 04:55:52;;;;;;;1.90;1.80;;;;;;;6.93;63.71;101203.66;5072438;28;20024;-72
2021/03/23 04:58:18;;;;;;;1.90;1.80;;;;;;;6.97;63.53;101202.16;5074173;28;20028;-74
2021/03/23 05:00:44;;;;;;;0.90;0.90;;;;;;;7.04;63.61;101197.50;5046207;28;20024;-75
2021/03/23 05:03:13;;;;;;;0.82;0.82;;;;;;;7.10;63.09;101199.31;5072436;28;20506;-74
2021/03/23 05:05:39;;;;;;;1.05;1.02;;;;;;;7.18;63.13;101194.63;5080499;28;20020;-75
2021/03/23 05:08:05;;;;;;;1.17;1.17;;;;;;;7.24;63.35;101199.19;5059565;28;20038;-73
2021/03/23 05:10:30;;;;;;;1.27;1.23;;;;;;;7.21;63.10;101183.31;5042959;28;20021;-73
2021/03/23 05:12:56;;;;;;;1.40;1.30;;;;;;;7.33;62.82;101198.66;5055959;28;20024;-75
2021/03/23 05:15:24;;;;;;;1.75;1.65;;;;;;;7.34;63.43;101197.63;5082207;28;20119;-76
2021/03/23 05:17:53;;;;;;;1.52;1.42;;;;;;;7.32;63.21;101188.00;5068036;28;20042;-73
2021/03/23 05:20:21;;;;;;;1.10;1.10;;;;;;;7.41;62.41;101194.81;5063403;28;20024;-74
2021/03/23 05:22:47;;;;;;;1.42;1.33;;;;;;;7.44;62.72;101199.78;5068369;28;20017;-74
2021/03/23 05:25:15;;;;;;;1.42;1.33;;;;;;;7.45;62.90;101190.56;5087805;28;20055;-73
2021/03/23 05:27:43;;;;;;;2.30;1.23;;;;;;;7.46;62.86;101186.81;5073873;28;20036;-74
2021/03/23 05:30:09;;;;;;;2.20;2.10;;;;;;;7.47;62.67;101185.72;5089201;28;20036;-75
2021/03/23 05:32:38;;;;;;;1.40;1.30;;;;;;;7.54;63.15;101193.84;5060336;28;20032;-76
2021/03/23 05:35:05;;;;;;;4.53;1.38;;;;;;;7.56;62.87;101185.44;5057819;28;20024;-74
2021/03/23 05:37:31;;;;;;;0.98;0.98;;;;;;;7.53;62.83;101180.44;5073915;28;20027;-76
2021/03/23 05:39:56;;;;;;;1.00;0.90;;;;;;;7.61;62.71;101180.16;5055848;28;20363;-73
2021/03/23 05:42:33;;;;;;;0.73;0.73;;;;;;;7.67;63.10;101182.78;5072340;28;20489;-74
2021/03/23 05:45:17;;;;;;;0.70;0.70;;;;;;;7.76;62.69;101194.19;5074419;28;20031;-75
2021/03/23 05:47:58;;;;;;;1.27;1.17;;;;;;;7.73;62.86;101189.22;5070150;28;20024;-73
2021/03/23 05:50:31;;;;;;;0.60;0.60;;;;;;;7.80;62.40;101192.69;5052088;28;20024;-75
2021/03/23 05:53:33;;;;;;;0.73;0.73;;;;;;;7.77;62.25;101176.81;5090776;28;20071;-75
2021/03/23 05:56:02;;;;;;;0.40;0.40;;;;;;;7.76;61.78;101180.59;5062726;28;20038;-74
2021/03/23 05:58:32;;;;;;;0.40;0.40;;;;;;;7.83;61.82;101186.78;5056140;28;20016;-74
2021/03/23 06:01:17;;;;;;;0.90;0.50;;;;;;;7.90;61.93;101199.47;5064403;28;20021;-74
2021/03/23 06:04:17;;;;;;;0.80;0.70;;;;;;;7.93;62.60;101199.00;5075001;28;20051;-73
2021/03/23 06:07:03;;;;;;;0.60;0.60;;;;;;;7.91;62.25;101192.97;5078005;28;20097;-74
2021/03/23 06:09:39;;;;;;;0.65;0.65;;;;;;;7.90;62.58;101189.44;5086597;28;20080;-73
2021/03/23 06:12:18;;;;;;;0.77;0.60;;;;;;;7.97;62.14;101197.50;5078995;28;20051;-73
2021/03/23 06:14:47;;;;;;;1.00;1.00;;;;;;;7.96;62.41;101196.66;5064347;28;20074;-72
2021/03/23 06:17:28;;;;;;;1.10;1.05;;;;;;;8.01;61.48;101201.44;5078506;28;20098;-72
2021/03/23 06:20:05;;;;;;;1.23;1.13;;;;;;;7.99;61.36;101196.22;5075534;28;20032;-74
2021/03/23 06:22:45;;;;;;;0.52;0.52;;;;;;;7.97;61.78;101202.94;5079782;28;20039;-73
2021/03/23 06:25:26;;;;;;;1.30;1.20;;;;;;;8.00;62.26;101206.06;5079382;28;20033;-73
2021/03/23 06:28:19;;;;;;;2.20;0.50;;;;;;;7.95;61.59;101203.16;5080661;28;20028;-74
2021/03/23 06:30:49;;;;;;;0.47;0.47;;;;;;;8.01;62.21;101213.13;5056342;28;20045;-74
2021/03/23 06:33:20;;;;;;;0.95;0.95;;;;;;;7.98;61.97;101215.50;5070121;28;20031;-75
2021/03/23 06:36:04;;;;;;;0.90;0.90;;;;;;;8.03;61.92;101218.34;5076525;28;20690;-75
2021/03/23 06:38:35;;;;;;;1.35;1.35;;;;;;;8.08;62.48;101218.50;5080971;28;20020;-72
2021/03/23 06:41:25;;;;;;;1.88;1.48;;;;;;;8.12;61.67;101221.59;5070831;28;20028;-75
2021/03/23 06:43:59;;;;;;;1.70;1.60;;;;;;;8.08;61.48;101220.41;5073228;28;20016;-74
2021/03/23 06:46:30;;;;;;;2.03;1.92;;;;;;;8.15;62.07;101223.88;5079011;28;20490;-73
2021/03/23 06:49:18;;;;;;;3.22;2.88;;;;;;;8.18;61.86;101232.41;5072751;28;20446;-72
2021/03/23 06:52:05;;;;;;;2.10;2.00;;;;;;;8.18;62.09;101216.06;5079073;28;20062;-73
2021/03/23 06:54:37;;;;;;;1.45;1.30;;;;;;;8.25;61.76;101220.59;5068404;28;20012;-74
2021/03/23 06:57:10;;;;;;;1.35;1.25;;;;;;;8.27;62.48;101224.75;5064496;28;20033;-74
2021/03/23 06:59:45;;;;;;;2.30;1.80;;;;;;;8.36;62.05;101231.53;5082741;28;20022;-74
2021/03/23 07:02:32;;;;;;;1.63;1.52;;;;;;;8.40;61.84;101226.47;5078523;28;20036;-74
2021/03/23 07:05:17;;;;;;;1.75;1.65;;;;;;;8.51;61.53;101222.13;5057698;28;20387;-72
2021/03/23 07:08:10;;;;;;;1.92;1.75;;;;;;;8.53;62.62;101218.13;5067016;28;20025;-75
2021/03/23 07:10:40;;;;;;;2.67;1.30;;;;;;;8.62;62.30;101231.41;5050275;28;20115;-74
2021/03/23 07:13:26;;;;;;;2.85;2.75;;;;;;;8.65;61.87;101218.13;5064297;28;20032;-74
2021/03/23 07:16:06;;;;;;;2.97;1.60;;;;;;;8.69;61.82;101226.69;5062595;28;20367;-75
2021/03/23 07:18:37;;;;;;;1.50;1.40;;;;;;;8.75;61.98;101225.75;5068410;28;20025;-75
2021/03/23 07:21:22;;;;;;;1.77;1.52;;;;;;;8.82;61.35;101226.47;5081506;28;20028;-73
2021/03/23 07:24:05;;;;;;;5.70;3.35;;;;;;;8.89;61.30;101232.66;5078602;28;20028;-75
2021/03/23 07:26:34;;;;;;;2.78;2.67;;;;;;;8.95;61.14;101230.91;5057652;28;20036;-74
2021/03/23 07:29:12;;;;;;;3.45;3.25;;;;;;;9.04;61.11;101234.09;5056645;22;20410;-73
2021/03/23 07:31:40;;;;;;;2.60;2.50;;;;;;;9.03;62.20;101226.97;5060665;28;20031;-72
2021/03/23 07:34:25;;;;;;;3.00;2.90;;;;;;;9.13;61.33;101238.13;5059422;28;20021;-76
2021/03/23 07:36:57;;;;;;;5.10;3.92;;;;;;;9.19;61.43;101236.38;5068267;28;20054;-76
2021/03/23 07:39:26;;;;;;;4.38;4.00;;;;;;;9.22;61.73;101231.25;5059717;28;20029;-74
2021/03/23 07:42:02;;;;;;;7.47;3.90;;;;;;;9.27;61.66;101236.00;5065409;28;20056;-75
2021/03/23 07:44:36;;;;;;;4.40;4.00;;;;;;;9.35;61.03;101234.81;5061535;28;20158;-75
2021/03/23 07:47:10;;;;;;;4.20;3.90;;;;;;;9.42;61.70;101235.53;5074244;28;20035;-75
2021/03/23 07:50:05;;;;;;;4.80;4.28;;;;;;;9.46;61.00;101236.69;5060433;28;20097;-73
2021/03/23 07:52:50;;;;;;;4.18;3.75;;;;;;;9.56;60.67;101239.69;5063548;28;20183;-72
2021/03/23 07:55:20;;;;;;;4.43;4.13;;;;;;;9.66;61.21;101246.44;5061861;28;20024;-74
2021/03/23 07:57:46;;;;;;;2.67;2.58;;;;;;;9.75;61.54;101251.28;5064134;28;20102;-73
2021/03/23 08:00:30;;;;;;;2.80;2.67;;;;;;;9.88;61.20;101244.69;5045318;28;20075;-74
2021/03/23 08:03:49;;;;;;;5.20;4.80;;;;;;;10.00;60.94;101252.88;5037060;28;20032;-76
2021/03/23 08:06:32;;;;;;;3.60;3.40;;;;;;;10.04;60.31;101250.50;5031285;28;20029;-76
2021/03/23 08:09:30;;;;;;;2.75;2.65;;;;;;;10.19;60.27;101245.34;5060247;28;20037;-76
2021/03/23 08:12:45;;;;;;;3.50;3.30;;;;;;;10.39;60.72;101249.56;5073083;28;20024;-75
2021/03/23 08:15:29;;;;;;;3.17;2.97;;;;;;;10.51;60.49;101252.25;5063241;28;20041;-79
2021/03/23 08:18:19;;;;;;;3.70;3.50;;;;;;;10.67;60.05;101253.34;5058466;28;20475;-77
2021/03/23 08:21:03;;;;;;;2.30;2.20;;;;;;;10.81;59.98;101235.53;5063599;28;20032;-75
2021/03/23 08:23:41;;;;;;;3.95;3.65;;;;;;;10.95;59.70;101242.34;5073923;28;20024;-76
2021/03/23 08:26:23;;;;;;;4.25;2.63;;;;;;;11.03;59.13;101234.81;5051032;28;20035;-77
2021/03/23 08:29:11;;;;;;;2.63;2.53;;;;;;;11.15;59.17;101230.88;5072075;28;20024;-77
2021/03/23 08:32:13;;;;;;;3.30;3.08;;;;;;;11.31;58.87;101237.41;5067049;28;20025;-75
2021/03/23 08:35:13;;;;;;;4.68;4.22;;;;;;;11.29;58.75;101225.09;5055657;28;20028;-76
2021/03/23 08:37:57;;;;;;;3.47;2.80;;;;;;;11.23;58.86;101231.53;5050211;28;20366;-76
2021/03/23 08:40:33;;;;;;;3.00;2.90;;;;;;;11.25;58.42;101235.69;5065524;28;20033;-77
2021/03/23 08:42:58;;;;;;;4.45;4.10;;;;;;;11.17;58.61;101230.66;5070552;28;20017;-78
2021/03/23 08:45:42;;;;;;;3.85;3.65;;;;;;;11.19;58.76;101231.22;5050841;28;20028;-77
2021/03/23 08:48:42;;;;;;;5.63;4.68;;;;;;;11.28;58.65;101246.13;5075019;28;20020;-77
2021/03/23 08:51:11;;;;;;;3.40;3.28;;;;;;;11.31;59.04;101245.63;5063123;28;20060;-78
2021/03/23 08:53:56;;;;;;;3.58;3.33;;;;;;;11.39;58.85;101246.28;5082096;28;20077;-78
2021/03/23 08:56:45;;;;;;;4.63;3.65;;;;;;;11.49;58.49;101252.75;5051748;28;20028;-74
2021/03/23 08:59:30;;;;;;;5.03;4.57;;;;;;;11.50;58.72;101242.63;5057353;28;20073;-74
2021/03/23 09:01:55;;;;;;;3.90;3.70;;;;;;;11.50;58.34;101248.91;5074800;28;20063;-74
2021/03/23 09:04:31;;;;;;;4.18;3.75;;;;;;;11.65;58.61;101248.34;5085693;28;20032;-73
2021/03/23 09:07:12;;;;;;;7.60;3.92;;;;;;;11.81;58.08;101254.84;5076543;28;20040;-74
2021/03/23 09:09:45;;;;;;;7.53;4.13;;;;;;;11.81;57.39;101248.50;5069851;28;20451;-77
2021/03/23 09:12:36;;;;;;;4.25;3.95;;;;;;;11.93;57.59;101246.53;5065091;28;20112;-75
2021/03/23 09:15:25;;;;;;;8.32;4.07;;;;;;;12.16;57.54;101252.81;5078118;28;20028;-77
2021/03/23 09:18:11;;;;;;;9.70;5.30;;;;;;;12.38;56.37;101237.16;5069264;28;20035;-75
2021/03/23 09:20:37;;;;;;;10.02;4.70;;;;;;;12.66;55.54;101254.47;5068440;28;20036;-74
2021/03/23 09:23:18;;;;;;;5.03;4.63;;;;;;;12.94;55.09;101249.75;5063749;28;20024;-77
2021/03/23 09:25:49;;;;;;;6.15;5.18;;;;;;;13.08;55.02;101256.47;5057166;28;20033;-74
2021/03/23 09:28:30;;;;;;;6.18;5.32;;;;;;;13.40;54.45;101263.88;5049344;28;20028;-74
2021/03/23 09:31:02;;;;;;;5.18;4.70;;;;;;;13.54;53.64;101257.91;5045944;28;20045;-78
2021/03/23 09:33:37;;;;;;;5.63;5.13;;;;;;;13.69;53.24;101249.75;5058686;28;20020;-74
2021/03/23 09:36:09;;;;;;;5.57;5.07;;;;;;;14.02;53.38;101258.69;5076862;28;20048;-77
2021/03/23 09:38:50;;;;;;;5.60;5.15;;;;;;;14.14;50.86;101245.53;5068958;28;20158;-75
2021/03/23 09:41:21;;;;;;;7.63;6.13;;;;;;;13.89;50.75;101259.19;5076097;28;20027;-76
2021/03/23 09:43:50;;;;;;;6.90;6.38;;;;;;;13.63;50.73;101239.81;5068027;28;20099;-77
2021/03/23 09:46:43;;;;;;;6.10;5.50;;;;;;;13.44;50.73;101258.66;5045279;28;20466;-74
2021/03/23 09:49:22;;;;;;;12.05;6.75;;;;;;;12.90;51.17;101265.09;5069848;28;20035;-72
2021/03/23 09:52:11;;;;;;;14.30;7.65;;;;;;;12.47;52.90;101254.00;5057974;28;20040;-73
2021/03/23 09:54:40;;;;;;;9.68;8.52;;;;;;;12.15;53.13;101262.13;5062390;28;20043;-75
2021/03/23 09:57:23;;;;;;;15.73;9.18;;;;;;;11.79;54.33;101251.50;5055561;28;20024;-75
2021/03/23 09:59:57;;;;;;;14.50;9.30;;;;;;;11.51;54.95;101255.25;5072909;28;20028;-74
2021/03/23 10:02:32;;;;;;;12.05;8.70;;;;;;;11.51;55.66;101255.25;5077321;28;20347;-76
2021/03/23 10:05:22;;;;;;;14.82;8.13;;;;;;;11.62;55.85;101256.22;5064776;28;20039;-73
2021/03/23 10:07:51;;;;;;;12.75;7.50;;;;;;;11.68;55.69;101256.03;5083641;28;20012;-75
2021/03/23 10:10:22;;;;;;;5.97;5.45;;;;;;;11.84;55.95;101261.72;5050603;28;20024;-75
2021/03/23 10:12:48;;;;;;;5.30;5.05;;;;;;;11.92;55.65;101247.56;5075601;28;20021;-75
2021/03/23 10:15:18;;;;;;;9.23;8.35;;;;;;;11.95;54.90;101233.38;5074880;28;20035;-74
2021/03/23 10:17:44;;;;;;;8.77;6.28;;;;;;;12.05;55.13;101249.13;5074724;28;20029;-75
2021/03/23 10:20:15;;;;;;;7.15;6.55;;;;;;;12.12;55.01;101243.44;5048998;28;20037;-74
2021/03/23 10:22:43;;;;;;;8.13;7.40;;;;;;;12.37;54.53;101245.66;5057598;28;20036;-74
2021/03/23 10:25:19;;;;;;;11.52;7.57;;;;;;;12.47;53.41;101243.03;5063848;28;20099;-75
2021/03/23 10:27:44;;;;;;;7.10;6.50;;;;;;;12.52;53.18;101242.25;5069931;28;20029;-74
2021/03/23 10:30:13;;;;;;;7.75;6.78;;;;;;;12.56;52.87;101243.38;5058866;28;20102;-77
2021/03/23 10:32:45;;;;;;;7.70;6.20;;;;;;;12.57;52.29;101234.03;5063325;28;20430;-73
2021/03/23 10:35:16;;;;;;;5.40;5.07;;;;;;;12.78;52.15;101240.56;5066804;28;20040;-74
2021/03/23 10:37:42;;;;;;;6.28;5.75;;;;;;;12.94;50.93;101238.78;5071609;28;20100;-74
2021/03/23 10:40:33;;;;;;;7.13;6.15;;;;;;;13.12;49.88;101244.97;5053136;28;20052;-76
2021/03/23 10:42:58;;;;;;;6.35;5.93;;;;;;;12.98;48.35;101237.16;5074778;28;20021;-74
2021/03/23 10:45:42;;;;;;;7.47;6.75;;;;;;;12.84;49.13;101244.19;5068468;28;20051;-76
2021/03/23 10:48:20;;;;;;;6.03;5.70;;;;;;;12.77;49.04;101238.09;5074627;28;20020;-73
2021/03/23 10:51:13;;;;;;;7.18;6.45;;;;;;;12.72;48.63;101220.47;5062304;28;20025;-75
2021/03/23 10:54:05;;;;;;;7.07;4.63;;;;;;;13.01;48.13;101211.94;5073676;28;20043;-74
2021/03/23 10:56:44;;;;;;;6.38;5.40;;;;;;;13.10;47.72;101226.81;5062649;28;20020;-76
2021/03/23 10:59:19;;;;;;;7.03;5.72;;;;;;;13.21;46.61;101229.63;5064841;28;20086;-76
2021/03/23 11:02:05;;;;;;;5.00;4.50;;;;;;;13.31;46.14;101232.44;5070470;28;20016;-74
2021/03/23 11:04:33;;;;;;;6.15;5.60;;;;;;;13.16;46.33;101224.94;5070663;28;20031;-76
2021/03/23 11:07:22;;;;;;;7.88;5.13;;;;;;;13.45;46.33;101243.84;5071668;28;20035;-75
2021/03/23 11:09:58;;;;;;;5.03;4.63;;;;;;;13.38;44.74;101224.84;5071537;28;20027;-76
2021/03/23 11:12:25;;;;;;;6.18;5.78;;;;;;;13.14;44.92;101218.06;5054332;28;20021;-74
2021/03/23 11:15:00;;;;;;;4.97;4.45;;;;;;;13.22;46.27;101217.56;5067305;28;20024;-75
2021/03/23 11:17:28;;;;;;;4.97;4.55;;;;;;;13.32;46.22;101217.63;5069751;28;20115;-75
2021/03/23 11:19:58;;;;;;;5.50;5.03;;;;;;;13.46;46.39;101208.94;5070246;28;20024;-74
2021/03/23 11:22:38;;;;;;;11.63;5.88;;;;;;;13.55;45.06;101210.94;5050110;28;20355;-76
2021/03/23 11:25:06;;;;;;;5.10;4.75;;;;;;;13.39;45.45;101207.28;5074703;28;20043;-75
2021/03/23 11:27:34;;;;;;;9.00;5.60;;;;;;;13.25;45.80;101217.84;5074465;28;20482;-76
2021/03/23 11:30:00;;;;;;;6.25;5.60;;;;;;;13.16;46.28;101216.69;5055388;28;20137;-75
2021/03/23 11:32:27;;;;;;;6.30;5.78;;;;;;;13.07;47.24;101193.59;5048650;28;20040;-74
2021/03/23 11:34:53;;;;;;;6.60;5.13;;;;;;;13.23;46.95;101202.75;5031104;28;20028;-74
2021/03/23 11:37:20;;;;;;;5.68;4.50;;;;;;;14.32;48.24;101213.13;5042497;28;20056;-74
2021/03/23 11:39:49;;;;;;;4.47;4.18;;;;;;;15.26;41.56;101209.28;5041115;28;20040;-75
2021/03/23 11:42:19;;;;;;;4.22;3.88;;;;;;;15.30;41.47;101215.91;5042368;28;20112;-75
2021/03/23 11:44:47;;;;;;;4.85;4.55;;;;;;;15.17;40.94;101223.66;5034948;28;20025;-75
2021/03/23 11:47:36;;;;;;;3.88;3.60;;;;;;;14.75;41.70;101213.75;5054841;28;20033;-75
2021/03/23 11:50:04;;;;;;;2.95;2.75;;;;;;;14.46;41.92;101222.50;5040565;28;20025;-75
2021/03/23 11:52:38;;;;;;;3.45;3.10;;;;;;;14.31;41.89;101212.31;5041196;28;20036;-74
2021/03/23 11:55:18;;;;;;;;;;;;;;;;;;;;;
2021/03/23 11:57:47;;;;;;;4.30;3.47;;;;;;;14.39;42.31;101207.38;5043841;28;20590;-75